createdAt,value
2024-05-09T00:01:12.595Z,15.29
2024-05-09T00:03:44.594Z,15.28
2024-05-09T00:06:17.823Z,15.27
2024-05-09T00:08:48.144Z,15.26
2024-05-09T00:11:20.604Z,15.25
2024-05-09T00:13:51.119Z,15.23
2024-05-09T00:16:21.387Z,15.16
2024-05-09T00:18:51.689Z,15.14
2024-05-09T00:21:24.777Z,15.12
2024-05-09T00:23:55.045Z,15.07
2024-05-09T00:26:25.477Z,15.05
2024-05-09T00:28:55.896Z,15.05
2024-05-09T00:31:28.532Z,15.02
2024-05-09T00:33:58.970Z,15.04
2024-05-09T00:36:32.245Z,15.01
2024-05-09T00:39:02.747Z,15.00
2024-05-09T00:41:36.110Z,15.01
2024-05-09T00:44:06.471Z,14.98
2024-05-09T00:46:36.892Z,14.94
2024-05-09T00:49:07.212Z,14.92
2024-05-09T00:51:42.145Z,14.90
2024-05-09T00:54:12.418Z,14.87
2024-05-09T00:56:43.267Z,14.86
2024-05-09T00:59:13.748Z,14.83
2024-05-09T01:01:44.372Z,14.81
2024-05-09T01:04:15.019Z,14.78
2024-05-09T01:06:47.936Z,14.74
2024-05-09T01:09:18.282Z,14.72
2024-05-09T01:11:48.886Z,14.66
2024-05-09T01:14:19.456Z,14.65
2024-05-09T01:16:50.138Z,14.56
2024-05-09T01:19:32.842Z,14.62
2024-05-09T01:22:08.021Z,14.61
2024-05-09T01:24:41.095Z,14.58
2024-05-09T01:27:11.521Z,14.57
2024-05-09T01:29:41.775Z,14.57
2024-05-09T01:32:12.082Z,14.56
2024-05-09T01:34:42.570Z,14.53
2024-05-09T01:37:13.055Z,14.54
2024-05-09T01:39:46.185Z,14.54
2024-05-09T01:42:16.741Z,14.53
2024-05-09T01:44:47.048Z,14.49
2024-05-09T01:47:17.601Z,14.44
2024-05-09T01:49:48.137Z,14.38
2024-05-09T01:52:18.639Z,14.32
2024-05-09T01:54:51.722Z,14.31
2024-05-09T01:57:22.050Z,14.27
2024-05-09T01:59:52.407Z,14.24
2024-05-09T02:02:22.924Z,14.19
2024-05-09T02:04:53.303Z,14.16
2024-05-09T02:07:23.683Z,14.14
2024-05-09T02:09:57.692Z,14.12
2024-05-09T02:12:28.035Z,14.06
2024-05-09T02:14:58.728Z,14.07
2024-05-09T02:17:29.492Z,14.06
2024-05-09T02:19:59.975Z,14.05
2024-05-09T02:22:30.333Z,14.03
2024-05-09T02:25:03.758Z,14.03
2024-05-09T02:27:34.227Z,14.00
2024-05-09T02:30:09.905Z,13.98
2024-05-09T02:32:45.911Z,13.96
2024-05-09T02:35:16.703Z,13.94
2024-05-09T02:37:44.386Z,13.89
2024-05-09T02:40:25.216Z,13.87
2024-05-09T02:42:56.681Z,13.84
2024-05-09T02:45:27.692Z,13.86
2024-05-09T02:47:55.510Z,13.83
2024-05-09T02:50:33.903Z,13.81
2024-05-09T02:53:06.541Z,13.80
2024-05-09T02:55:39.435Z,13.76
2024-05-09T02:58:08.353Z,13.73
2024-05-09T03:00:41.534Z,13.70
2024-05-09T03:03:12.809Z,13.69
2024-05-09T03:05:45.836Z,13.68
2024-05-09T03:08:14.139Z,13.70
2024-05-09T03:10:47.449Z,13.69
2024-05-09T03:13:16.260Z,13.67
2024-05-09T03:15:47.138Z,13.66
2024-05-09T03:18:16.139Z,13.62
2024-05-09T03:20:46.747Z,13.61
2024-05-09T03:23:14.598Z,13.61
2024-05-09T03:25:47.837Z,13.57
2024-05-09T03:28:15.532Z,13.59
2024-05-09T03:30:45.845Z,13.59
2024-05-09T03:33:15.626Z,13.57
2024-05-09T03:35:47.213Z,13.55
2024-05-09T03:38:18.260Z,13.52
2024-05-09T03:40:50.007Z,13.50
2024-05-09T03:43:21.750Z,13.46
2024-05-09T03:45:53.296Z,13.43
2024-05-09T03:48:21.515Z,13.39
2024-05-09T03:50:51.963Z,13.35
2024-05-09T03:53:19.760Z,13.34
2024-05-09T03:55:52.882Z,13.30
2024-05-09T03:58:20.808Z,13.31
2024-05-09T04:00:51.252Z,13.30
2024-05-09T04:03:19.247Z,13.30
2024-05-09T04:05:49.760Z,13.27
2024-05-09T04:08:17.398Z,13.25
2024-05-09T04:10:47.876Z,13.22
2024-05-09T04:13:18.330Z,13.20
2024-05-09T04:15:48.686Z,13.17
2024-05-09T04:18:17.807Z,13.16
2024-05-09T04:20:48.219Z,13.14
2024-05-09T04:23:15.975Z,13.11
2024-05-09T04:25:47.083Z,13.09
2024-05-09T04:28:15.088Z,13.09
2024-05-09T04:30:48.231Z,13.07
2024-05-09T04:33:20.232Z,13.06
2024-05-09T04:35:49.636Z,13.06
2024-05-09T04:38:20.301Z,13.06
2024-05-09T04:40:48.281Z,13.08
2024-05-09T04:43:20.688Z,13.12
2024-05-09T04:45:51.598Z,13.09
2024-05-09T04:48:22.225Z,13.09
2024-05-09T04:50:50.236Z,13.08
2024-05-09T04:53:20.821Z,13.09
2024-05-09T04:55:48.966Z,13.10
2024-05-09T04:58:19.383Z,13.11
2024-05-09T05:00:47.148Z,13.17
2024-05-09T05:03:20.690Z,13.18
2024-05-09T05:05:48.752Z,13.21
2024-05-09T05:08:19.907Z,13.22
2024-05-09T05:10:49.121Z,13.22
2024-05-09T05:13:21.594Z,13.29
2024-05-09T05:15:51.113Z,13.30
2024-05-09T05:18:24.910Z,13.31
2024-05-09T05:20:53.057Z,13.33
2024-05-09T05:23:24.455Z,13.35
2024-05-09T05:25:53.911Z,13.38
2024-05-09T05:28:24.899Z,13.38
2024-05-09T05:30:52.591Z,13.40
2024-05-09T05:33:27.997Z,13.41
2024-05-09T05:35:57.493Z,13.41
2024-05-09T05:38:28.612Z,13.40
2024-05-09T05:40:56.750Z,13.39
2024-05-09T05:43:27.314Z,13.37
2024-05-09T05:45:54.978Z,13.38
2024-05-09T05:48:28.139Z,13.38
2024-05-09T05:50:56.073Z,13.39
2024-05-09T05:53:26.554Z,13.42
2024-05-09T05:55:54.556Z,13.42
2024-05-09T05:58:24.979Z,13.42
2024-05-09T06:00:53.878Z,13.43
2024-05-09T06:03:24.200Z,13.43
2024-05-09T06:05:54.450Z,13.43
2024-05-09T06:08:27.055Z,13.46
2024-05-09T06:10:57.811Z,13.40
2024-05-09T06:13:28.513Z,13.48
2024-05-09T06:15:56.326Z,13.48
2024-05-09T06:18:26.982Z,13.50
2024-05-09T06:20:57.427Z,13.54
2024-05-09T06:23:27.831Z,13.56
2024-05-09T06:25:55.593Z,13.61
2024-05-09T06:28:25.998Z,13.67
2024-05-09T06:30:53.689Z,13.68
2024-05-09T06:33:24.510Z,13.71
2024-05-09T06:35:54.521Z,13.77
2024-05-09T06:38:27.694Z,13.79
2024-05-09T06:40:55.681Z,13.86
2024-05-09T06:43:26.406Z,13.91
2024-05-09T06:45:54.275Z,13.97
2024-05-09T06:48:24.963Z,14.01
2024-05-09T06:50:52.931Z,14.09
2024-05-09T06:53:27.899Z,14.16
2024-05-09T06:55:55.787Z,14.23
2024-05-09T06:58:26.029Z,14.28
2024-05-09T07:00:53.753Z,14.33
2024-05-09T07:03:24.327Z,14.34
2024-05-09T07:05:52.095Z,14.36
2024-05-09T07:08:22.561Z,14.39
2024-05-09T07:10:53.134Z,14.43
2024-05-09T07:13:23.721Z,14.51
2024-05-09T07:15:51.400Z,14.59
2024-05-09T07:18:22.216Z,14.64
2024-05-09T07:20:50.742Z,14.65
2024-05-09T07:23:21.708Z,14.69
2024-05-09T07:25:52.028Z,14.72
2024-05-09T07:28:25.209Z,14.77
2024-05-09T07:30:54.437Z,14.82
2024-05-09T07:33:25.398Z,14.87
2024-05-09T07:35:53.322Z,14.92
2024-05-09T07:38:24.638Z,15.00
2024-05-09T07:40:55.014Z,15.09
2024-05-09T07:43:25.283Z,15.17
2024-05-09T07:45:55.211Z,15.27
2024-05-09T07:50:00.725Z,15.33
2024-05-09T07:53:55.960Z,15.41
2024-05-09T07:56:29.096Z,15.41
2024-05-09T07:58:59.716Z,15.48
2024-05-09T08:01:27.622Z,15.53
2024-05-09T08:03:58.452Z,15.57
2024-05-09T08:06:27.049Z,15.63
2024-05-09T08:09:05.107Z,15.67
2024-05-09T08:11:38.344Z,15.71
2024-05-09T08:14:08.885Z,15.78
2024-05-09T08:16:36.446Z,15.82
2024-05-09T08:19:06.872Z,15.85
2024-05-09T08:21:34.541Z,15.87
2024-05-09T08:24:04.798Z,15.93
2024-05-09T08:26:32.475Z,15.95
2024-05-09T08:29:05.671Z,15.97
2024-05-09T08:31:38.457Z,15.99
2024-05-09T08:34:08.956Z,16.02
2024-05-09T08:36:36.784Z,16.05
2024-05-09T08:39:07.237Z,16.10
2024-05-09T08:41:35.535Z,16.15
2024-05-09T08:44:08.526Z,16.23
2024-05-09T08:46:36.336Z,16.27
2024-05-09T08:49:07.117Z,16.29
2024-05-09T08:51:35.204Z,16.37
2024-05-09T08:54:05.731Z,16.48
2024-05-09T08:56:35.483Z,16.53
2024-05-09T08:59:11.406Z,16.57
2024-05-09T09:01:41.231Z,16.58
2024-05-09T09:04:13.729Z,16.66
2024-05-09T09:06:41.684Z,16.72
2024-05-09T09:09:13.741Z,16.76
2024-05-09T09:11:41.404Z,16.81
2024-05-09T09:14:14.469Z,16.86
2024-05-09T09:16:42.102Z,16.89
2024-05-09T09:19:14.833Z,16.91
2024-05-09T09:21:42.800Z,16.93
2024-05-09T09:24:13.270Z,16.92
2024-05-09T09:26:40.946Z,16.92
2024-05-09T09:29:14.176Z,16.93
2024-05-09T09:31:42.230Z,16.94
2024-05-09T09:34:13.179Z,17.06
2024-05-09T09:36:43.342Z,17.21
2024-05-09T09:39:13.543Z,17.28
2024-05-09T09:41:41.940Z,17.29
2024-05-09T09:44:15.167Z,17.29
2024-05-09T09:46:42.813Z,17.32
2024-05-09T09:49:13.617Z,17.33
2024-05-09T09:51:43.891Z,17.38
2024-05-09T09:54:15.178Z,17.42
2024-05-09T09:56:45.428Z,17.47
2024-05-09T09:59:19.461Z,17.49
2024-05-09T10:01:47.380Z,17.53
2024-05-09T10:04:19.563Z,17.58
2024-05-09T10:06:51.331Z,17.63
2024-05-09T10:09:21.858Z,17.71
2024-05-09T10:11:52.329Z,17.78
2024-05-09T10:14:31.065Z,17.85
2024-05-09T10:17:05.561Z,17.91
2024-05-09T10:19:36.183Z,18.11
2024-05-09T10:22:06.131Z,18.26
2024-05-09T10:24:50.870Z,18.47
2024-05-09T10:27:27.168Z,18.57
2024-05-09T10:30:01.123Z,18.65
2024-05-09T10:32:29.736Z,18.64
2024-05-09T10:35:03.762Z,18.64
2024-05-09T10:37:32.482Z,18.69
2024-05-09T10:40:07.218Z,18.71
2024-05-09T10:42:41.862Z,18.67
2024-05-09T10:45:15.044Z,18.61
2024-05-09T10:47:42.831Z,18.59
2024-05-09T10:50:22.214Z,18.64
2024-05-09T10:52:55.906Z,18.67
2024-05-09T10:55:26.211Z,18.69
2024-05-09T11:28:55.810Z,17.29
2024-05-09T11:31:23.771Z,17.73
2024-05-09T11:33:58.502Z,18.10
2024-05-09T11:36:26.203Z,18.41
2024-05-09T11:38:56.484Z,18.64
2024-05-09T11:41:26.460Z,18.79
2024-05-09T11:43:59.384Z,18.96
2024-05-09T11:46:27.960Z,19.14
2024-05-09T11:48:58.428Z,19.27
2024-05-09T11:51:26.241Z,19.38
2024-05-09T11:53:57.422Z,19.43
2024-05-09T11:56:25.182Z,19.48
2024-05-09T11:58:56.038Z,19.56
2024-05-09T12:01:29.154Z,19.63
2024-05-09T12:04:00.018Z,19.74
2024-05-09T12:06:28.205Z,19.81
2024-05-09T12:08:58.772Z,19.90
2024-05-09T12:11:26.414Z,19.97
2024-05-09T12:13:56.895Z,19.97
2024-05-09T12:16:24.871Z,19.90
2024-05-09T12:18:58.170Z,19.82
2024-05-09T12:21:26.106Z,19.77
2024-05-09T12:23:56.692Z,19.73
2024-05-09T12:26:24.507Z,19.69
2024-05-09T12:28:54.953Z,19.68
2024-05-09T12:31:22.779Z,19.73
2024-05-09T12:33:54.735Z,19.83
2024-05-09T12:36:25.289Z,19.88
2024-05-09T12:38:55.608Z,19.95
2024-05-09T12:41:23.392Z,20.02
2024-05-09T12:43:53.944Z,20.10
2024-05-09T12:46:22.646Z,20.19
2024-05-09T12:48:53.706Z,20.25
2024-05-09T12:51:24.434Z,20.26
2024-05-09T12:53:54.769Z,20.32
2024-05-09T12:56:22.672Z,20.39
2024-05-09T12:58:52.987Z,20.42
2024-05-09T13:01:20.818Z,20.45
2024-05-09T13:03:51.452Z,20.56
2024-05-09T13:06:19.311Z,20.69
2024-05-09T13:08:52.447Z,20.76
2024-05-09T13:11:20.395Z,20.82
2024-05-09T13:13:50.956Z,20.87
2024-05-09T13:16:18.957Z,20.85
2024-05-09T13:18:49.594Z,20.87
2024-05-09T13:21:17.394Z,20.88
2024-05-09T13:23:47.845Z,20.82
2024-05-09T13:26:18.504Z,20.73
2024-05-09T13:28:48.786Z,20.68
2024-05-09T13:31:17.039Z,20.66
2024-05-09T13:33:47.725Z,20.66
2024-05-09T13:36:15.584Z,20.65
2024-05-09T13:38:45.967Z,20.69
2024-05-09T13:41:13.987Z,20.73
2024-05-09T13:43:47.043Z,20.73
2024-05-09T13:46:15.305Z,20.68
2024-05-09T13:48:45.790Z,20.62
2024-05-09T13:51:13.648Z,20.59
2024-05-09T13:53:44.042Z,20.54
2024-05-09T13:56:12.978Z,20.48
2024-05-09T13:58:44.025Z,20.49
2024-05-09T14:01:14.532Z,20.46
2024-05-09T14:03:45.168Z,20.40
2024-05-09T14:06:13.330Z,20.37
2024-05-09T14:08:43.858Z,20.36
2024-05-09T14:11:11.767Z,20.32
2024-05-09T14:13:42.203Z,20.30
2024-05-09T14:16:10.157Z,20.26
2024-05-09T14:18:43.564Z,20.24
2024-05-09T14:21:11.408Z,20.25
2024-05-09T14:23:41.789Z,20.27
2024-05-09T14:26:09.857Z,20.32
2024-05-09T14:28:40.062Z,20.29
2024-05-09T14:31:07.739Z,20.31
2024-05-09T14:33:38.558Z,20.33
2024-05-09T14:36:09.436Z,20.37
2024-05-09T14:38:39.937Z,20.39
2024-05-09T14:41:09.474Z,20.40
2024-05-09T14:43:39.757Z,20.38
2024-05-09T14:46:07.579Z,20.42
2024-05-09T14:48:38.190Z,20.42
2024-05-09T14:51:08.783Z,20.44
2024-05-09T14:53:39.151Z,20.46
2024-05-09T14:56:07.529Z,20.47
2024-05-09T14:58:38.198Z,20.52
2024-05-09T15:01:06.375Z,20.61
2024-05-09T15:03:36.930Z,20.63
2024-05-09T15:06:05.573Z,20.65
2024-05-09T15:08:38.895Z,20.65
2024-05-09T15:11:06.763Z,20.64
2024-05-09T15:13:37.370Z,20.61
2024-05-09T15:16:05.775Z,20.61
2024-05-09T15:18:36.208Z,20.58
2024-05-09T15:21:04.045Z,20.53
2024-05-09T15:23:34.469Z,20.52
2024-05-09T15:26:05.499Z,20.48
2024-05-09T15:28:35.818Z,20.47
2024-05-09T15:31:03.432Z,20.48
2024-05-09T15:33:33.983Z,20.50
2024-05-09T15:36:02.052Z,20.50
2024-05-09T15:38:32.651Z,20.56
2024-05-09T15:41:00.462Z,20.66
2024-05-09T15:43:33.732Z,20.70
2024-05-09T15:46:01.572Z,20.67
2024-05-09T15:48:32.221Z,20.62
2024-05-09T15:51:00.052Z,20.58
2024-05-09T15:53:30.483Z,20.51
2024-05-09T15:55:58.205Z,20.50
2024-05-09T15:58:28.858Z,20.45
2024-05-09T16:00:59.930Z,20.39
2024-05-09T16:03:30.620Z,20.31
2024-05-09T16:05:58.881Z,20.24
2024-05-09T16:08:29.386Z,20.20
2024-05-09T16:10:57.115Z,20.18
2024-05-09T16:13:27.767Z,20.17
2024-05-09T16:15:55.770Z,20.16
2024-05-09T16:18:28.830Z,20.13
2024-05-09T16:21:00.366Z,20.10
2024-05-09T16:23:32.776Z,20.03
2024-05-09T16:26:00.616Z,20.06
2024-05-09T16:28:31.150Z,20.03
2024-05-09T16:31:00.027Z,19.96
2024-05-09T16:33:33.611Z,19.93
2024-05-09T16:36:01.340Z,19.90
2024-05-09T16:38:31.690Z,19.89
2024-05-09T16:41:00.350Z,19.87
2024-05-09T16:43:30.738Z,19.83
2024-05-09T16:45:58.723Z,19.80
2024-05-09T16:48:29.109Z,19.77
2024-05-09T16:50:59.470Z,19.72
2024-05-09T16:53:29.945Z,19.69
2024-05-09T16:55:57.684Z,19.66
2024-05-09T16:58:28.457Z,19.63
2024-05-09T17:00:56.342Z,19.60
2024-05-09T17:07:22.028Z,19.57
2024-05-09T17:09:49.973Z,19.61
2024-05-09T17:12:20.302Z,19.68
2024-05-09T17:14:50.672Z,19.77
2024-05-09T17:17:21.366Z,19.85
2024-05-09T17:19:52.184Z,19.87
2024-05-09T17:22:22.651Z,19.91
2024-05-09T17:24:53.258Z,19.92
2024-05-09T17:27:21.127Z,19.93
2024-05-09T17:29:51.912Z,19.92
2024-05-09T17:32:37.442Z,19.95
2024-05-09T17:35:05.823Z,19.95
2024-05-09T17:37:36.436Z,19.92
2024-05-09T17:40:06.824Z,19.90
2024-05-09T17:42:41.800Z,19.84
2024-05-09T17:45:09.544Z,19.75
2024-05-09T17:47:42.890Z,19.70
2024-05-09T17:50:15.046Z,19.63
2024-05-09T17:52:53.972Z,19.58
2024-05-09T17:55:21.768Z,19.53
2024-05-09T17:57:52.279Z,19.49
2024-05-09T18:00:28.958Z,19.48
2024-05-09T18:03:11.842Z,19.47
2024-05-09T18:05:40.996Z,19.45
2024-05-09T18:08:11.999Z,19.44
2024-05-09T18:10:41.062Z,19.40
2024-05-09T18:13:12.617Z,19.39
2024-05-09T18:15:40.799Z,19.37
2024-05-09T18:18:16.605Z,19.30
2024-05-09T18:20:46.360Z,19.28
2024-05-09T18:23:19.094Z,19.30
2024-05-09T18:25:47.878Z,19.27
2024-05-09T18:28:18.944Z,19.19
2024-05-09T18:30:47.101Z,19.20
2024-05-09T18:33:20.716Z,19.21
2024-05-09T18:35:48.992Z,19.22
2024-05-09T18:38:25.732Z,19.21
2024-05-09T18:40:53.732Z,19.22
2024-05-09T18:43:28.832Z,19.18
2024-05-09T18:46:04.300Z,19.18
2024-05-09T18:48:37.520Z,19.19
2024-05-09T18:52:12.592Z,19.16
2024-05-09T18:54:40.439Z,19.14
2024-05-09T18:57:10.891Z,19.09
2024-05-09T18:59:38.776Z,19.09
2024-05-09T19:02:09.531Z,19.08
2024-05-09T19:04:37.577Z,19.04
2024-05-09T19:08:16.257Z,19.00
2024-05-09T19:10:46.125Z,18.96
2024-05-09T19:13:17.268Z,18.95
2024-05-09T19:15:45.278Z,18.96
2024-05-09T19:18:17.275Z,18.91
2024-05-09T19:20:45.589Z,18.92
2024-05-09T19:23:18.778Z,18.88
2024-05-09T19:25:46.786Z,18.85
2024-05-09T19:28:17.321Z,18.82
2024-05-09T19:30:45.438Z,18.78
2024-05-09T19:33:15.895Z,18.76
2024-05-09T19:35:44.190Z,18.75
2024-05-09T19:38:18.101Z,18.73
2024-05-09T19:40:46.071Z,18.70
2024-05-09T19:43:16.771Z,18.71
2024-05-09T19:45:44.897Z,18.69
2024-05-09T19:48:15.442Z,18.67
2024-05-09T19:50:44.850Z,18.63
2024-05-09T19:53:19.343Z,18.59
2024-05-09T19:55:46.998Z,18.55
2024-05-09T19:58:17.354Z,18.53
2024-05-09T20:00:45.202Z,18.51
2024-05-09T20:03:16.712Z,18.49
2024-05-09T20:05:46.731Z,18.45
2024-05-09T20:08:20.418Z,18.46
2024-05-09T20:10:48.637Z,18.42
2024-05-09T20:13:19.066Z,18.41
2024-05-09T20:15:47.108Z,18.39
2024-05-09T20:18:18.093Z,18.38
2024-05-09T20:20:47.238Z,18.36
2024-05-09T20:23:21.307Z,18.33
2024-05-09T20:25:49.061Z,18.31
2024-05-09T20:28:19.691Z,18.28
2024-05-09T20:30:47.454Z,18.27
2024-05-09T20:33:17.953Z,18.24
2024-05-09T20:35:45.801Z,18.21
2024-05-09T20:38:16.383Z,18.18
2024-05-09T20:40:46.919Z,18.17
2024-05-09T20:43:17.491Z,18.14
2024-05-09T20:45:45.156Z,18.11
2024-05-09T20:48:15.649Z,18.10
2024-05-09T20:50:43.569Z,18.08
2024-05-09T20:53:15.336Z,18.06
2024-05-09T20:55:47.194Z,18.04
2024-05-09T20:58:17.577Z,18.03
2024-05-09T21:00:46.370Z,18.01
2024-05-09T21:03:18.188Z,17.98
2024-05-09T21:05:47.324Z,17.95
2024-05-09T21:08:18.364Z,17.93
2024-05-09T21:10:49.026Z,17.89
2024-05-09T21:13:20.007Z,17.87
2024-05-09T21:15:47.909Z,17.85
2024-05-09T21:18:18.539Z,17.81
2024-05-09T21:20:46.282Z,17.78
2024-05-09T21:23:16.719Z,17.76
2024-05-09T21:25:44.405Z,17.71
2024-05-09T21:28:17.731Z,17.65
2024-05-09T21:30:45.782Z,17.64
2024-05-09T21:33:16.576Z,17.60
2024-05-09T21:35:45.218Z,17.55
2024-05-09T21:38:16.372Z,17.51
2024-05-09T21:40:44.934Z,17.46
2024-05-09T21:43:18.709Z,17.42
2024-05-09T21:45:46.676Z,17.37
2024-05-09T21:48:17.159Z,17.32
2024-05-09T21:50:45.210Z,17.30
2024-05-09T21:53:16.036Z,17.28
2024-05-09T21:55:43.818Z,17.26
2024-05-09T21:58:17.736Z,17.19
2024-05-09T22:00:46.590Z,17.19
2024-05-09T22:03:17.910Z,17.16
2024-05-09T22:05:45.875Z,17.13
2024-05-09T22:08:16.203Z,17.12
2024-05-09T22:10:44.099Z,17.09
2024-05-09T22:13:15.988Z,17.09
2024-05-09T22:15:46.624Z,17.05
2024-05-09T22:18:17.444Z,17.01
2024-05-09T22:20:46.416Z,16.98
2024-05-09T22:23:18.223Z,16.99
2024-05-09T22:25:46.044Z,16.99
2024-05-09T22:28:18.193Z,16.98
2024-05-09T22:30:50.696Z,16.96
2024-05-09T22:33:21.290Z,16.93
2024-05-09T22:35:49.051Z,16.92
2024-05-09T22:38:19.334Z,16.90
2024-05-09T22:40:49.527Z,16.87
2024-05-09T22:43:25.255Z,16.85
2024-05-09T22:45:56.322Z,16.80
2024-05-09T22:48:26.962Z,16.79
2024-05-09T22:50:55.294Z,16.78
2024-05-09T22:53:26.607Z,16.73
2024-05-09T22:55:54.697Z,16.70
2024-05-09T22:58:26.055Z,16.68
2024-05-09T23:00:56.493Z,16.66
2024-05-09T23:03:27.019Z,16.64
2024-05-09T23:05:54.874Z,16.62
2024-05-09T23:08:25.647Z,16.60
2024-05-09T23:10:53.796Z,16.58
2024-05-09T23:13:24.868Z,16.57
2024-05-09T23:15:52.690Z,16.55
2024-05-09T23:18:25.799Z,16.51
2024-05-09T23:20:56.729Z,16.48
2024-05-09T23:23:26.993Z,16.43
2024-05-09T23:25:54.645Z,16.39
2024-05-09T23:28:25.124Z,16.33
2024-05-09T23:30:52.942Z,16.26
2024-05-09T23:33:26.137Z,16.24
2024-05-09T23:35:53.874Z,16.21
2024-05-09T23:38:24.893Z,16.18
2024-05-09T23:40:52.964Z,16.15
2024-05-09T23:43:23.746Z,16.11
2024-05-09T23:45:51.564Z,16.12
2024-05-09T23:48:22.250Z,16.10
2024-05-09T23:50:52.788Z,16.07
2024-05-09T23:53:23.258Z,16.06
2024-05-09T23:55:51.084Z,16.04
2024-05-09T23:58:21.725Z,16.00
